sensor_id;sensor_type;location;lat;lon;timestamp;P1;durP1;ratioP1;P2;durP2;ratioP2
45065;SDS011;30830;53.704;10.004;2022-09-14T00:01:49;3.58;;;1.38;;
45065;SDS011;30830;53.704;10.004;2022-09-14T00:04:16;2.30;;;1.17;;
45065;SDS011;30830;53.704;10.004;2022-09-14T00:06:44;2.05;;;1.10;;
45065;SDS011;30830;53.704;10.004;2022-09-14T00:09:12;3.42;;;1.10;;
45065;SDS011;30830;53.704;10.004;2022-09-14T00:11:40;3.55;;;1.02;;
45065;SDS011;30830;53.704;10.004;2022-09-14T00:14:05;4.45;;;1.45;;
45065;SDS011;30830;53.704;10.004;2022-09-14T00:16:32;5.22;;;1.20;;
45065;SDS011;30830;53.704;10.004;2022-09-14T00:19:01;5.55;;;1.60;;
45065;SDS011;30830;53.704;10.004;2022-09-14T00:21:32;3.00;;;1.17;;
45065;SDS011;30830;53.704;10.004;2022-09-14T00:23:59;3.40;;;1.35;;
45065;SDS011;30830;53.704;10.004;2022-09-14T00:26:25;2.17;;;1.08;;
45065;SDS011;30830;53.704;10.004;2022-09-14T00:28:52;5.00;;;0.95;;
45065;SDS011;30830;53.704;10.004;2022-09-14T00:31:19;3.15;;;1.50;;
45065;SDS011;30830;53.704;10.004;2022-09-14T00:33:46;4.07;;;1.40;;
45065;SDS011;30830;53.704;10.004;2022-09-14T00:36:14;1.75;;;0.88;;
45065;SDS011;30830;53.704;10.004;2022-09-14T00:38:53;3.97;;;1.02;;
45065;SDS011;30830;53.704;10.004;2022-09-14T00:41:26;4.65;;;1.30;;
45065;SDS011;30830;53.704;10.004;2022-09-14T00:46:24;2.67;;;0.75;;
45065;SDS011;30830;53.704;10.004;2022-09-14T00:48:51;2.53;;;0.80;;
45065;SDS011;30830;53.704;10.004;2022-09-14T00:51:18;6.60;;;1.30;;
45065;SDS011;30830;53.704;10.004;2022-09-14T00:53:46;3.88;;;1.17;;
45065;SDS011;30830;53.704;10.004;2022-09-14T00:56:12;7.60;;;1.42;;
45065;SDS011;30830;53.704;10.004;2022-09-14T00:58:38;5.60;;;1.92;;
45065;SDS011;30830;53.704;10.004;2022-09-14T01:01:05;5.88;;;1.98;;
45065;SDS011;30830;53.704;10.004;2022-09-14T01:03:33;7.88;;;1.77;;
45065;SDS011;30830;53.704;10.004;2022-09-14T01:08:43;3.55;;;1.25;;
45065;SDS011;30830;53.704;10.004;2022-09-14T01:16:23;3.30;;;1.40;;
45065;SDS011;30830;53.704;10.004;2022-09-14T01:18:59;3.00;;;1.20;;
45065;SDS011;30830;53.704;10.004;2022-09-14T01:21:29;4.22;;;1.20;;
45065;SDS011;30830;53.704;10.004;2022-09-14T01:26:46;2.55;;;1.35;;
45065;SDS011;30830;53.704;10.004;2022-09-14T01:29:25;2.65;;;1.00;;
45065;SDS011;30830;53.704;10.004;2022-09-14T01:37:42;5.13;;;1.60;;
45065;SDS011;30830;53.704;10.004;2022-09-14T01:40:17;5.72;;;1.30;;
45065;SDS011;30830;53.704;10.004;2022-09-14T01:42:57;3.30;;;1.23;;
45065;SDS011;30830;53.704;10.004;2022-09-14T01:45:37;6.95;;;1.95;;
45065;SDS011;30830;53.704;10.004;2022-09-14T01:48:06;3.42;;;1.33;;
45065;SDS011;30830;53.704;10.004;2022-09-14T01:50:39;4.75;;;1.10;;
45065;SDS011;30830;53.704;10.004;2022-09-14T01:55:54;4.25;;;1.38;;
45065;SDS011;30830;53.704;10.004;2022-09-14T01:58:26;2.35;;;1.50;;
45065;SDS011;30830;53.704;10.004;2022-09-14T02:01:06;2.83;;;1.00;;
45065;SDS011;30830;53.704;10.004;2022-09-14T02:03:39;4.13;;;1.90;;
45065;SDS011;30830;53.704;10.004;2022-09-14T02:08:43;1.40;;;1.25;;
45065;SDS011;30830;53.704;10.004;2022-09-14T02:11:08;1.45;;;1.20;;
45065;SDS011;30830;53.704;10.004;2022-09-14T02:13:34;5.60;;;1.40;;
45065;SDS011;30830;53.704;10.004;2022-09-14T02:16:00;2.97;;;1.50;;
45065;SDS011;30830;53.704;10.004;2022-09-14T02:18:25;4.63;;;1.35;;
45065;SDS011;30830;53.704;10.004;2022-09-14T02:20:55;3.83;;;1.25;;
45065;SDS011;30830;53.704;10.004;2022-09-14T02:23:24;2.70;;;1.35;;
45065;SDS011;30830;53.704;10.004;2022-09-14T02:25:50;3.45;;;1.05;;
45065;SDS011;30830;53.704;10.004;2022-09-14T02:28:16;2.35;;;1.20;;
45065;SDS011;30830;53.704;10.004;2022-09-14T02:30:46;3.55;;;1.42;;
45065;SDS011;30830;53.704;10.004;2022-09-14T02:33:22;3.58;;;1.10;;
45065;SDS011;30830;53.704;10.004;2022-09-14T02:36:08;2.45;;;1.23;;
45065;SDS011;30830;53.704;10.004;2022-09-14T02:38:51;2.60;;;1.15;;
45065;SDS011;30830;53.704;10.004;2022-09-14T02:41:57;2.38;;;1.25;;
45065;SDS011;30830;53.704;10.004;2022-09-14T02:44:34;5.00;;;1.95;;
45065;SDS011;30830;53.704;10.004;2022-09-14T02:47:28;6.07;;;1.13;;
45065;SDS011;30830;53.704;10.004;2022-09-14T02:53:29;7.95;;;1.75;;
45065;SDS011;30830;53.704;10.004;2022-09-14T02:55:58;3.35;;;1.60;;
45065;SDS011;30830;53.704;10.004;2022-09-14T02:58:40;2.38;;;1.13;;
45065;SDS011;30830;53.704;10.004;2022-09-14T03:01:08;5.55;;;1.77;;
45065;SDS011;30830;53.704;10.004;2022-09-14T03:03:39;3.70;;;1.60;;
45065;SDS011;30830;53.704;10.004;2022-09-14T03:06:05;3.03;;;1.48;;
45065;SDS011;30830;53.704;10.004;2022-09-14T03:08:31;5.13;;;1.70;;
45065;SDS011;30830;53.704;10.004;2022-09-14T03:10:57;3.83;;;1.40;;
45065;SDS011;30830;53.704;10.004;2022-09-14T03:13:23;5.18;;;1.92;;
45065;SDS011;30830;53.704;10.004;2022-09-14T03:15:49;3.45;;;1.80;;
45065;SDS011;30830;53.704;10.004;2022-09-14T03:18:15;5.13;;;1.73;;
45065;SDS011;30830;53.704;10.004;2022-09-14T03:20:41;4.50;;;1.67;;
45065;SDS011;30830;53.704;10.004;2022-09-14T03:23:06;4.20;;;1.58;;
45065;SDS011;30830;53.704;10.004;2022-09-14T03:25:36;1.52;;;1.42;;
45065;SDS011;30830;53.704;10.004;2022-09-14T03:28:04;3.47;;;1.83;;
45065;SDS011;30830;53.704;10.004;2022-09-14T03:30:30;3.33;;;1.80;;
45065;SDS011;30830;53.704;10.004;2022-09-14T03:32:57;4.65;;;1.50;;
45065;SDS011;30830;53.704;10.004;2022-09-14T03:35:23;4.70;;;2.35;;
45065;SDS011;30830;53.704;10.004;2022-09-14T03:37:49;4.53;;;1.98;;
45065;SDS011;30830;53.704;10.004;2022-09-14T03:40:15;4.13;;;1.20;;
45065;SDS011;30830;53.704;10.004;2022-09-14T03:42:45;4.80;;;1.55;;
45065;SDS011;30830;53.704;10.004;2022-09-14T03:45:12;4.13;;;1.20;;
45065;SDS011;30830;53.704;10.004;2022-09-14T03:47:39;2.88;;;1.17;;
45065;SDS011;30830;53.704;10.004;2022-09-14T03:50:06;3.03;;;1.63;;
45065;SDS011;30830;53.704;10.004;2022-09-14T03:52:33;4.55;;;1.30;;
45065;SDS011;30830;53.704;10.004;2022-09-14T03:54:59;2.95;;;1.50;;
45065;SDS011;30830;53.704;10.004;2022-09-14T03:57:25;3.58;;;1.95;;
45065;SDS011;30830;53.704;10.004;2022-09-14T03:59:50;4.43;;;1.50;;
45065;SDS011;30830;53.704;10.004;2022-09-14T04:02:16;5.28;;;1.70;;
45065;SDS011;30830;53.704;10.004;2022-09-14T04:04:41;4.63;;;1.25;;
45065;SDS011;30830;53.704;10.004;2022-09-14T04:07:07;3.25;;;1.33;;
45065;SDS011;30830;53.704;10.004;2022-09-14T04:09:33;2.83;;;1.73;;
45065;SDS011;30830;53.704;10.004;2022-09-14T04:11:58;5.63;;;1.65;;
45065;SDS011;30830;53.704;10.004;2022-09-14T04:14:24;2.58;;;1.65;;
45065;SDS011;30830;53.704;10.004;2022-09-14T04:16:50;4.18;;;1.42;;
45065;SDS011;30830;53.704;10.004;2022-09-14T04:19:18;3.20;;;1.20;;
45065;SDS011;30830;53.704;10.004;2022-09-14T04:21:44;6.03;;;1.77;;
45065;SDS011;30830;53.704;10.004;2022-09-14T04:24:12;4.60;;;1.50;;
45065;SDS011;30830;53.704;10.004;2022-09-14T04:26:38;4.57;;;1.52;;
45065;SDS011;30830;53.704;10.004;2022-09-14T04:29:04;2.97;;;1.45;;
45065;SDS011;30830;53.704;10.004;2022-09-14T04:31:29;4.07;;;1.45;;
45065;SDS011;30830;53.704;10.004;2022-09-14T04:33:56;4.88;;;1.85;;
45065;SDS011;30830;53.704;10.004;2022-09-14T04:36:22;3.78;;;1.35;;
45065;SDS011;30830;53.704;10.004;2022-09-14T04:38:54;3.80;;;1.25;;
45065;SDS011;30830;53.704;10.004;2022-09-14T04:41:21;5.85;;;1.77;;
45065;SDS011;30830;53.704;10.004;2022-09-14T04:43:47;5.60;;;1.88;;
45065;SDS011;30830;53.704;10.004;2022-09-14T04:46:21;4.35;;;2.22;;
45065;SDS011;30830;53.704;10.004;2022-09-14T04:48:49;7.50;;;1.75;;
45065;SDS011;30830;53.704;10.004;2022-09-14T04:51:18;2.85;;;1.30;;
45065;SDS011;30830;53.704;10.004;2022-09-14T04:53:46;3.40;;;1.63;;
45065;SDS011;30830;53.704;10.004;2022-09-14T04:56:14;7.32;;;2.17;;
45065;SDS011;30830;53.704;10.004;2022-09-14T04:58:41;4.32;;;1.45;;
45065;SDS011;30830;53.704;10.004;2022-09-14T05:01:13;2.42;;;1.38;;
45065;SDS011;30830;53.704;10.004;2022-09-14T05:03:40;7.60;;;1.85;;
45065;SDS011;30830;53.704;10.004;2022-09-14T05:06:16;9.52;;;3.15;;
45065;SDS011;30830;53.704;10.004;2022-09-14T05:08:43;11.02;;;4.70;;
45065;SDS011;30830;53.704;10.004;2022-09-14T05:11:11;7.55;;;2.35;;
45065;SDS011;30830;53.704;10.004;2022-09-14T05:13:41;8.25;;;2.20;;
45065;SDS011;30830;53.704;10.004;2022-09-14T05:16:29;6.03;;;2.10;;
45065;SDS011;30830;53.704;10.004;2022-09-14T05:18:57;8.65;;;2.85;;
45065;SDS011;30830;53.704;10.004;2022-09-14T05:21:28;3.80;;;1.98;;
45065;SDS011;30830;53.704;10.004;2022-09-14T05:23:56;3.00;;;1.77;;
45065;SDS011;30830;53.704;10.004;2022-09-14T05:26:24;3.92;;;2.10;;
45065;SDS011;30830;53.704;10.004;2022-09-14T05:28:51;6.80;;;1.80;;
45065;SDS011;30830;53.704;10.004;2022-09-14T05:31:17;4.53;;;1.48;;
45065;SDS011;30830;53.704;10.004;2022-09-14T05:33:43;5.53;;;1.58;;
45065;SDS011;30830;53.704;10.004;2022-09-14T05:36:09;6.22;;;2.08;;
45065;SDS011;30830;53.704;10.004;2022-09-14T05:38:36;9.13;;;1.83;;
45065;SDS011;30830;53.704;10.004;2022-09-14T05:41:04;5.20;;;1.88;;
45065;SDS011;30830;53.704;10.004;2022-09-14T05:43:30;3.60;;;1.85;;
45065;SDS011;30830;53.704;10.004;2022-09-14T05:45:59;7.00;;;1.83;;
45065;SDS011;30830;53.704;10.004;2022-09-14T05:48:31;5.95;;;2.08;;
45065;SDS011;30830;53.704;10.004;2022-09-14T05:50:58;4.65;;;2.38;;
45065;SDS011;30830;53.704;10.004;2022-09-14T05:53:25;4.22;;;1.70;;
45065;SDS011;30830;53.704;10.004;2022-09-14T05:56:00;2.65;;;1.35;;
45065;SDS011;30830;53.704;10.004;2022-09-14T05:58:36;6.05;;;1.80;;
45065;SDS011;30830;53.704;10.004;2022-09-14T06:01:06;4.30;;;1.45;;
45065;SDS011;30830;53.704;10.004;2022-09-14T06:03:33;6.47;;;2.13;;
45065;SDS011;30830;53.704;10.004;2022-09-14T06:05:59;4.35;;;1.30;;
45065;SDS011;30830;53.704;10.004;2022-09-14T06:08:24;3.92;;;1.77;;
45065;SDS011;30830;53.704;10.004;2022-09-14T06:10:50;3.15;;;1.75;;
45065;SDS011;30830;53.704;10.004;2022-09-14T06:13:15;4.72;;;1.88;;
45065;SDS011;30830;53.704;10.004;2022-09-14T06:15:41;3.88;;;1.70;;
45065;SDS011;30830;53.704;10.004;2022-09-14T06:18:07;2.60;;;1.50;;
45065;SDS011;30830;53.704;10.004;2022-09-14T06:20:32;5.60;;;2.45;;
45065;SDS011;30830;53.704;10.004;2022-09-14T06:22:58;4.85;;;1.73;;
45065;SDS011;30830;53.704;10.004;2022-09-14T06:25:23;4.82;;;1.90;;
45065;SDS011;30830;53.704;10.004;2022-09-14T06:27:51;5.82;;;1.45;;
45065;SDS011;30830;53.704;10.004;2022-09-14T06:30:19;7.82;;;1.92;;
45065;SDS011;30830;53.704;10.004;2022-09-14T06:32:45;7.45;;;1.80;;
45065;SDS011;30830;53.704;10.004;2022-09-14T06:35:10;4.80;;;2.20;;
45065;SDS011;30830;53.704;10.004;2022-09-14T06:37:36;4.28;;;1.77;;
45065;SDS011;30830;53.704;10.004;2022-09-14T06:40:04;4.70;;;2.20;;
45065;SDS011;30830;53.704;10.004;2022-09-14T06:42:30;5.65;;;2.72;;
45065;SDS011;30830;53.704;10.004;2022-09-14T06:44:55;5.63;;;1.83;;
45065;SDS011;30830;53.704;10.004;2022-09-14T06:47:21;5.72;;;1.83;;
45065;SDS011;30830;53.704;10.004;2022-09-14T06:49:47;5.32;;;1.33;;
45065;SDS011;30830;53.704;10.004;2022-09-14T06:52:14;7.55;;;2.03;;
45065;SDS011;30830;53.704;10.004;2022-09-14T06:54:39;6.28;;;1.67;;
45065;SDS011;30830;53.704;10.004;2022-09-14T06:57:05;5.22;;;1.42;;
45065;SDS011;30830;53.704;10.004;2022-09-14T06:59:31;5.30;;;2.72;;
45065;SDS011;30830;53.704;10.004;2022-09-14T07:01:56;7.60;;;2.25;;
45065;SDS011;30830;53.704;10.004;2022-09-14T07:04:22;5.75;;;1.75;;
45065;SDS011;30830;53.704;10.004;2022-09-14T07:06:49;6.80;;;2.15;;
45065;SDS011;30830;53.704;10.004;2022-09-14T07:09:15;3.80;;;1.85;;
45065;SDS011;30830;53.704;10.004;2022-09-14T07:11:42;9.82;;;2.08;;
45065;SDS011;30830;53.704;10.004;2022-09-14T07:14:08;7.25;;;1.60;;
45065;SDS011;30830;53.704;10.004;2022-09-14T07:16:35;4.57;;;1.48;;
45065;SDS011;30830;53.704;10.004;2022-09-14T07:19:03;3.28;;;1.58;;
45065;SDS011;30830;53.704;10.004;2022-09-14T07:21:30;7.50;;;1.70;;
45065;SDS011;30830;53.704;10.004;2022-09-14T07:23:57;4.43;;;1.65;;
45065;SDS011;30830;53.704;10.004;2022-09-14T07:26:24;5.80;;;1.60;;
45065;SDS011;30830;53.704;10.004;2022-09-14T07:28:56;3.17;;;1.50;;
45065;SDS011;30830;53.704;10.004;2022-09-14T07:31:31;6.38;;;2.42;;
45065;SDS011;30830;53.704;10.004;2022-09-14T07:33:59;8.45;;;3.83;;
45065;SDS011;30830;53.704;10.004;2022-09-14T07:36:27;4.90;;;1.90;;
45065;SDS011;30830;53.704;10.004;2022-09-14T07:38:53;6.57;;;2.15;;
45065;SDS011;30830;53.704;10.004;2022-09-14T07:41:23;4.10;;;1.63;;
45065;SDS011;30830;53.704;10.004;2022-09-14T07:43:51;4.13;;;1.50;;
45065;SDS011;30830;53.704;10.004;2022-09-14T07:46:18;7.30;;;1.92;;
45065;SDS011;30830;53.704;10.004;2022-09-14T07:48:44;6.32;;;1.65;;
45065;SDS011;30830;53.704;10.004;2022-09-14T07:51:10;3.67;;;1.30;;
45065;SDS011;30830;53.704;10.004;2022-09-14T07:53:37;4.15;;;2.03;;
45065;SDS011;30830;53.704;10.004;2022-09-14T07:56:04;4.57;;;1.73;;
45065;SDS011;30830;53.704;10.004;2022-09-14T07:58:31;4.65;;;1.50;;
45065;SDS011;30830;53.704;10.004;2022-09-14T08:00:58;6.93;;;2.58;;
45065;SDS011;30830;53.704;10.004;2022-09-14T08:03:31;4.35;;;1.63;;
45065;SDS011;30830;53.704;10.004;2022-09-14T08:06:00;4.90;;;1.83;;
45065;SDS011;30830;53.704;10.004;2022-09-14T08:08:28;2.85;;;1.13;;
45065;SDS011;30830;53.704;10.004;2022-09-14T08:10:55;3.75;;;2.30;;
45065;SDS011;30830;53.704;10.004;2022-09-14T08:13:30;5.65;;;1.75;;
45065;SDS011;30830;53.704;10.004;2022-09-14T08:15:57;4.47;;;1.10;;
45065;SDS011;30830;53.704;10.004;2022-09-14T08:18:24;2.25;;;0.90;;
45065;SDS011;30830;53.704;10.004;2022-09-14T08:20:50;7.28;;;1.27;;
45065;SDS011;30830;53.704;10.004;2022-09-14T08:23:17;5.20;;;1.30;;
45065;SDS011;30830;53.704;10.004;2022-09-14T08:25:42;5.68;;;1.63;;
45065;SDS011;30830;53.704;10.004;2022-09-14T08:28:08;3.13;;;1.00;;
45065;SDS011;30830;53.704;10.004;2022-09-14T08:30:34;7.97;;;1.75;;
45065;SDS011;30830;53.704;10.004;2022-09-14T08:32:59;4.78;;;1.10;;
45065;SDS011;30830;53.704;10.004;2022-09-14T08:35:25;5.03;;;1.75;;
45065;SDS011;30830;53.704;10.004;2022-09-14T08:37:50;7.22;;;2.00;;
45065;SDS011;30830;53.704;10.004;2022-09-14T08:40:16;4.65;;;1.70;;
45065;SDS011;30830;53.704;10.004;2022-09-14T08:42:42;5.18;;;1.58;;
45065;SDS011;30830;53.704;10.004;2022-09-14T08:45:09;4.05;;;1.40;;
45065;SDS011;30830;53.704;10.004;2022-09-14T08:47:39;7.63;;;2.90;;
45065;SDS011;30830;53.704;10.004;2022-09-14T08:52:38;10.57;;;1.65;;
45065;SDS011;30830;53.704;10.004;2022-09-14T08:57:42;3.50;;;1.52;;
45065;SDS011;30830;53.704;10.004;2022-09-14T09:00:23;3.38;;;1.55;;
45065;SDS011;30830;53.704;10.004;2022-09-14T09:08:05;4.80;;;1.55;;
45065;SDS011;30830;53.704;10.004;2022-09-14T09:10:52;6.13;;;1.80;;
45065;SDS011;30830;53.704;10.004;2022-09-14T09:13:19;4.20;;;1.83;;
45065;SDS011;30830;53.704;10.004;2022-09-14T09:15:51;5.30;;;1.10;;
45065;SDS011;30830;53.704;10.004;2022-09-14T09:18:35;7.20;;;1.58;;
45065;SDS011;30830;53.704;10.004;2022-09-14T09:21:09;2.75;;;1.10;;
45065;SDS011;30830;53.704;10.004;2022-09-14T09:23:38;2.80;;;1.20;;
45065;SDS011;30830;53.704;10.004;2022-09-14T09:26:06;5.10;;;1.40;;
45065;SDS011;30830;53.704;10.004;2022-09-14T09:28:50;4.63;;;1.42;;
45065;SDS011;30830;53.704;10.004;2022-09-14T09:31:18;5.28;;;1.13;;
45065;SDS011;30830;53.704;10.004;2022-09-14T09:33:57;4.97;;;1.27;;
45065;SDS011;30830;53.704;10.004;2022-09-14T09:36:23;3.10;;;1.23;;
45065;SDS011;30830;53.704;10.004;2022-09-14T09:38:49;4.60;;;1.40;;
45065;SDS011;30830;53.704;10.004;2022-09-14T09:41:25;4.38;;;1.00;;
45065;SDS011;30830;53.704;10.004;2022-09-14T09:46:21;7.82;;;1.40;;
45065;SDS011;30830;53.704;10.004;2022-09-14T09:48:47;2.17;;;1.15;;
45065;SDS011;30830;53.704;10.004;2022-09-14T09:53:48;3.30;;;1.23;;
45065;SDS011;30830;53.704;10.004;2022-09-14T09:56:25;3.40;;;1.08;;
45065;SDS011;30830;53.704;10.004;2022-09-14T09:58:53;5.80;;;1.35;;
45065;SDS011;30830;53.704;10.004;2022-09-14T10:04:19;7.30;;;1.52;;
45065;SDS011;30830;53.704;10.004;2022-09-14T10:06:47;2.50;;;0.93;;
45065;SDS011;30830;53.704;10.004;2022-09-14T10:09:18;3.92;;;1.35;;
45065;SDS011;30830;53.704;10.004;2022-09-14T10:11:46;11.93;;;1.35;;
45065;SDS011;30830;53.704;10.004;2022-09-14T10:14:22;4.78;;;1.17;;
45065;SDS011;30830;53.704;10.004;2022-09-14T10:17:06;4.00;;;1.05;;
45065;SDS011;30830;53.704;10.004;2022-09-14T10:19:46;2.72;;;1.08;;
45065;SDS011;30830;53.704;10.004;2022-09-14T10:22:26;3.05;;;1.35;;
45065;SDS011;30830;53.704;10.004;2022-09-14T10:25:00;7.32;;;2.15;;
45065;SDS011;30830;53.704;10.004;2022-09-14T10:27:39;6.13;;;1.77;;
45065;SDS011;30830;53.704;10.004;2022-09-14T10:30:16;5.75;;;1.63;;
45065;SDS011;30830;53.704;10.004;2022-09-14T10:32:54;4.28;;;0.95;;
45065;SDS011;30830;53.704;10.004;2022-09-14T10:35:27;6.47;;;1.15;;
45065;SDS011;30830;53.704;10.004;2022-09-14T10:38:18;3.38;;;1.17;;
45065;SDS011;30830;53.704;10.004;2022-09-14T10:55:04;4.15;;;1.30;;
45065;SDS011;30830;53.704;10.004;2022-09-14T10:58:22;5.95;;;1.48;;
45065;SDS011;30830;53.704;10.004;2022-09-14T11:03:51;6.88;;;1.30;;
45065;SDS011;30830;53.704;10.004;2022-09-14T11:09:29;6.45;;;1.40;;
45065;SDS011;30830;53.704;10.004;2022-09-14T11:12:10;4.38;;;1.42;;
45065;SDS011;30830;53.704;10.004;2022-09-14T11:25:43;4.80;;;1.40;;
45065;SDS011;30830;53.704;10.004;2022-09-14T11:28:17;5.03;;;1.60;;
45065;SDS011;30830;53.704;10.004;2022-09-14T11:31:03;4.18;;;1.02;;
45065;SDS011;30830;53.704;10.004;2022-09-14T11:33:56;2.35;;;1.08;;
45065;SDS011;30830;53.704;10.004;2022-09-14T11:36:45;5.88;;;1.58;;
45065;SDS011;30830;53.704;10.004;2022-09-14T11:39:17;3.78;;;1.20;;
45065;SDS011;30830;53.704;10.004;2022-09-14T11:42:01;4.82;;;1.00;;
45065;SDS011;30830;53.704;10.004;2022-09-14T11:44:32;4.28;;;0.80;;
45065;SDS011;30830;53.704;10.004;2022-09-14T11:47:05;4.00;;;1.20;;
45065;SDS011;30830;53.704;10.004;2022-09-14T11:54:41;5.57;;;1.30;;
45065;SDS011;30830;53.704;10.004;2022-09-14T11:57:11;5.72;;;1.40;;
45065;SDS011;30830;53.704;10.004;2022-09-14T12:12:39;4.90;;;1.10;;
45065;SDS011;30830;53.704;10.004;2022-09-14T12:15:14;5.75;;;1.95;;
45065;SDS011;30830;53.704;10.004;2022-09-14T12:20:41;4.65;;;2.05;;
45065;SDS011;30830;53.704;10.004;2022-09-14T12:25:37;5.63;;;1.42;;
45065;SDS011;30830;53.704;10.004;2022-09-14T12:36:00;3.75;;;1.20;;
45065;SDS011;30830;53.704;10.004;2022-09-14T12:40:58;5.75;;;1.20;;
45065;SDS011;30830;53.704;10.004;2022-09-14T12:54:07;4.20;;;1.17;;
45065;SDS011;30830;53.704;10.004;2022-09-14T13:02:02;6.45;;;1.63;;
45065;SDS011;30830;53.704;10.004;2022-09-14T13:04:56;9.30;;;1.45;;
45065;SDS011;30830;53.704;10.004;2022-09-14T13:07:22;9.20;;;1.05;;
45065;SDS011;30830;53.704;10.004;2022-09-14T13:09:57;7.68;;;1.60;;
45065;SDS011;30830;53.704;10.004;2022-09-14T13:12:28;5.90;;;1.10;;
45065;SDS011;30830;53.704;10.004;2022-09-14T13:15:02;7.85;;;1.90;;
45065;SDS011;30830;53.704;10.004;2022-09-14T13:17:58;3.83;;;1.02;;
45065;SDS011;30830;53.704;10.004;2022-09-14T13:20:37;5.15;;;1.55;;
45065;SDS011;30830;53.704;10.004;2022-09-14T13:23:17;4.30;;;1.63;;
45065;SDS011;30830;53.704;10.004;2022-09-14T13:25:47;7.28;;;1.30;;
45065;SDS011;30830;53.704;10.004;2022-09-14T13:28:14;2.97;;;1.20;;
45065;SDS011;30830;53.704;10.004;2022-09-14T13:30:42;5.90;;;1.40;;
45065;SDS011;30830;53.704;10.004;2022-09-14T13:33:21;3.55;;;1.50;;
45065;SDS011;30830;53.704;10.004;2022-09-14T13:35:48;3.97;;;1.42;;
45065;SDS011;30830;53.704;10.004;2022-09-14T13:38:18;3.63;;;1.40;;
45065;SDS011;30830;53.704;10.004;2022-09-14T13:40:47;4.70;;;1.55;;
45065;SDS011;30830;53.704;10.004;2022-09-14T13:43:15;3.50;;;1.08;;
45065;SDS011;30830;53.704;10.004;2022-09-14T13:45:44;3.38;;;1.05;;
45065;SDS011;30830;53.704;10.004;2022-09-14T13:48:12;7.22;;;1.88;;
45065;SDS011;30830;53.704;10.004;2022-09-14T13:50:39;3.65;;;1.17;;
45065;SDS011;30830;53.704;10.004;2022-09-14T13:56:13;1.95;;;1.15;;
45065;SDS011;30830;53.704;10.004;2022-09-14T13:58:40;2.67;;;1.20;;
45065;SDS011;30830;53.704;10.004;2022-09-14T14:01:06;5.00;;;1.25;;
45065;SDS011;30830;53.704;10.004;2022-09-14T14:06:27;2.83;;;1.13;;
45065;SDS011;30830;53.704;10.004;2022-09-14T14:08:56;3.97;;;1.35;;
45065;SDS011;30830;53.704;10.004;2022-09-14T14:11:32;4.68;;;1.58;;
45065;SDS011;30830;53.704;10.004;2022-09-14T14:14:09;6.60;;;0.85;;
45065;SDS011;30830;53.704;10.004;2022-09-14T14:19:46;5.13;;;0.98;;
45065;SDS011;30830;53.704;10.004;2022-09-14T14:24:38;3.38;;;1.25;;
45065;SDS011;30830;53.704;10.004;2022-09-14T14:27:04;4.22;;;1.90;;
45065;SDS011;30830;53.704;10.004;2022-09-14T14:29:30;3.42;;;1.17;;
45065;SDS011;30830;53.704;10.004;2022-09-14T14:31:56;6.57;;;1.45;;
45065;SDS011;30830;53.704;10.004;2022-09-14T14:36:52;3.20;;;1.10;;
45065;SDS011;30830;53.704;10.004;2022-09-14T14:39:19;2.58;;;0.68;;
45065;SDS011;30830;53.704;10.004;2022-09-14T14:41:46;2.58;;;0.63;;
45065;SDS011;30830;53.704;10.004;2022-09-14T14:44:23;2.92;;;1.00;;
45065;SDS011;30830;53.704;10.004;2022-09-14T14:46:53;1.92;;;0.80;;
45065;SDS011;30830;53.704;10.004;2022-09-14T14:49:19;3.28;;;0.80;;
45065;SDS011;30830;53.704;10.004;2022-09-14T14:51:45;2.90;;;1.08;;
45065;SDS011;30830;53.704;10.004;2022-09-14T14:54:12;2.17;;;0.88;;
45065;SDS011;30830;53.704;10.004;2022-09-14T14:56:42;5.30;;;1.30;;
45065;SDS011;30830;53.704;10.004;2022-09-14T15:01:44;4.47;;;1.08;;
45065;SDS011;30830;53.704;10.004;2022-09-14T15:04:11;2.08;;;1.02;;
45065;SDS011;30830;53.704;10.004;2022-09-14T15:06:37;1.67;;;0.60;;
45065;SDS011;30830;53.704;10.004;2022-09-14T15:09:04;4.35;;;0.90;;
45065;SDS011;30830;53.704;10.004;2022-09-14T15:11:35;3.78;;;0.52;;
45065;SDS011;30830;53.704;10.004;2022-09-14T15:14:02;0.98;;;0.90;;
45065;SDS011;30830;53.704;10.004;2022-09-14T15:16:28;1.35;;;0.70;;
45065;SDS011;30830;53.704;10.004;2022-09-14T15:18:54;2.67;;;0.70;;
45065;SDS011;30830;53.704;10.004;2022-09-14T15:21:19;1.95;;;0.50;;
45065;SDS011;30830;53.704;10.004;2022-09-14T15:23:47;2.38;;;0.80;;
45065;SDS011;30830;53.704;10.004;2022-09-14T15:26:13;0.95;;;0.50;;
45065;SDS011;30830;53.704;10.004;2022-09-14T15:28:38;2.03;;;0.90;;
45065;SDS011;30830;53.704;10.004;2022-09-14T15:31:04;1.27;;;0.75;;
45065;SDS011;30830;53.704;10.004;2022-09-14T15:33:30;1.25;;;0.50;;
45065;SDS011;30830;53.704;10.004;2022-09-14T15:35:56;3.33;;;0.90;;
45065;SDS011;30830;53.704;10.004;2022-09-14T15:38:25;3.05;;;0.45;;
45065;SDS011;30830;53.704;10.004;2022-09-14T15:40:50;1.35;;;0.68;;
45065;SDS011;30830;53.704;10.004;2022-09-14T15:43:16;2.15;;;0.52;;
45065;SDS011;30830;53.704;10.004;2022-09-14T15:45:42;0.68;;;0.60;;
45065;SDS011;30830;53.704;10.004;2022-09-14T15:48:11;0.43;;;0.30;;
45065;SDS011;30830;53.704;10.004;2022-09-14T15:50:41;1.10;;;0.40;;
45065;SDS011;30830;53.704;10.004;2022-09-14T15:53:09;1.45;;;0.80;;
45065;SDS011;30830;53.704;10.004;2022-09-14T15:55:37;0.20;;;0.20;;
45065;SDS011;30830;53.704;10.004;2022-09-14T15:58:03;0.43;;;0.43;;
45065;SDS011;30830;53.704;10.004;2022-09-14T16:00:29;0.70;;;0.70;;
45065;SDS011;30830;53.704;10.004;2022-09-14T16:02:55;3.47;;;0.70;;
45065;SDS011;30830;53.704;10.004;2022-09-14T16:05:21;1.55;;;0.43;;
45065;SDS011;30830;53.704;10.004;2022-09-14T16:07:46;1.63;;;0.40;;
45065;SDS011;30830;53.704;10.004;2022-09-14T16:10:12;0.73;;;0.30;;
45065;SDS011;30830;53.704;10.004;2022-09-14T16:12:37;1.02;;;0.50;;
45065;SDS011;30830;53.704;10.004;2022-09-14T16:15:03;1.13;;;0.57;;
45065;SDS011;30830;53.704;10.004;2022-09-14T16:17:29;1.83;;;0.50;;
45065;SDS011;30830;53.704;10.004;2022-09-14T16:19:54;1.35;;;0.52;;
45065;SDS011;30830;53.704;10.004;2022-09-14T16:22:20;1.23;;;0.52;;
45065;SDS011;30830;53.704;10.004;2022-09-14T16:24:46;1.83;;;0.60;;
45065;SDS011;30830;53.704;10.004;2022-09-14T16:27:11;1.02;;;0.43;;
45065;SDS011;30830;53.704;10.004;2022-09-14T16:29:37;0.82;;;0.57;;
45065;SDS011;30830;53.704;10.004;2022-09-14T16:32:04;0.50;;;0.50;;
45065;SDS011;30830;53.704;10.004;2022-09-14T16:34:29;0.70;;;0.50;;
45065;SDS011;30830;53.704;10.004;2022-09-14T16:36:55;0.75;;;0.50;;
45065;SDS011;30830;53.704;10.004;2022-09-14T16:39:23;1.13;;;0.60;;
45065;SDS011;30830;53.704;10.004;2022-09-14T16:41:51;2.00;;;0.50;;
45065;SDS011;30830;53.704;10.004;2022-09-14T16:44:20;1.00;;;0.70;;
45065;SDS011;30830;53.704;10.004;2022-09-14T16:46:48;1.05;;;0.73;;
45065;SDS011;30830;53.704;10.004;2022-09-14T16:49:15;0.35;;;0.35;;
45065;SDS011;30830;53.704;10.004;2022-09-14T16:51:41;1.42;;;0.65;;
45065;SDS011;30830;53.704;10.004;2022-09-14T16:54:07;1.02;;;0.50;;
45065;SDS011;30830;53.704;10.004;2022-09-14T16:56:35;1.92;;;0.85;;
45065;SDS011;30830;53.704;10.004;2022-09-14T16:59:02;1.48;;;0.65;;
45065;SDS011;30830;53.704;10.004;2022-09-14T17:01:30;2.20;;;0.77;;
45065;SDS011;30830;53.704;10.004;2022-09-14T17:03:59;1.63;;;0.80;;
45065;SDS011;30830;53.704;10.004;2022-09-14T17:06:27;0.75;;;0.50;;
45065;SDS011;30830;53.704;10.004;2022-09-14T17:08:57;0.70;;;0.40;;
45065;SDS011;30830;53.704;10.004;2022-09-14T17:11:29;0.90;;;0.70;;